Time;durP1;ratioP1;P1;durP2;ratioP2;P2;SDS_P1;SDS_P2;PMS_P1;PMS_P2;Temp;Humidity;BMP_temperature;BMP_pressure;BME280_temperature;BME280_humidity;BME280_pressure;Samples;Min_cycle;Max_cycle;Signal;HPM_P1;HPM_P2
2023/01/07 00:02:09;;;;;;;12.70;5.20;;;21.70;64.60;;;;;;212241;1289;22586;-55
2023/01/07 00:07:14;;;;;;;11.80;6.50;;;21.70;64.50;;;;;;212433;1296;22477;-55
2023/01/07 00:12:18;;;;;;;12.10;5.40;;;21.70;64.70;;;;;;215895;1288;22616;-54
2023/01/07 00:17:22;;;;;;;11.40;5.50;;;21.60;64.10;;;;;;212508;1294;23883;-55
2023/01/07 00:22:26;;;;;;;10.20;5.50;;;21.60;64.10;;;;;;212293;1297;25299;-54
2023/01/07 00:27:31;;;;;;;9.10;5.50;;;21.60;64.00;;;;;;212191;1286;23562;-55
2023/01/07 00:33:03;;;;;;;14.00;6.30;;;21.60;63.90;;;;;;212216;1286;25661;-55
2023/01/07 00:38:07;;;;;;;8.90;4.90;;;21.50;63.70;;;;;;212531;1293;22608;-55
2023/01/07 00:43:11;;;;;;;12.00;5.20;;;21.50;63.80;;;;;;212590;1289;22570;-54
2023/01/07 00:48:17;;;;;;;11.90;5.80;;;21.70;64.20;;;;;;212671;1299;22685;-58
2023/01/07 00:53:22;;;;;;;10.10;5.00;;;21.80;64.20;;;;;;212534;1289;22492;-54
2023/01/07 00:58:26;;;;;;;9.30;5.50;;;21.80;63.60;;;;;;212478;1308;22658;-55
2023/01/07 01:03:32;;;;;;;10.30;5.20;;;21.90;63.30;;;;;;212326;1293;24274;-54
2023/01/07 01:08:41;;;;;;;12.50;4.70;;;21.80;63.10;;;;;;212595;1290;24462;-55
2023/01/07 01:13:45;;;;;;;8.80;5.20;;;21.80;62.90;;;;;;212373;1300;22601;-55
2023/01/07 01:18:49;;;;;;;9.30;4.80;;;21.80;63.20;;;;;;212668;1293;23866;-55
2023/01/07 01:23:53;;;;;;;13.70;5.00;;;21.80;62.70;;;;;;212710;1297;22506;-56
2023/01/07 01:28:57;;;;;;;8.60;4.90;;;21.70;62.70;;;;;;212638;1286;22478;-54
2023/01/07 01:34:01;;;;;;;9.10;4.50;;;21.70;63.00;;;;;;212773;1289;22495;-54
2023/01/07 01:39:05;;;;;;;7.50;4.50;;;21.60;63.00;;;;;;212367;1293;22534;-54
2023/01/07 01:44:32;;;;;;;9.00;4.50;;;21.60;62.70;;;;;;212574;1291;22562;-55
2023/01/07 01:49:42;;;;;;;6.80;4.40;;;21.60;63.00;;;;;;212477;1293;25633;-54
2023/01/07 01:54:54;;;;;;;8.70;4.40;;;21.60;62.40;;;;;;212461;1293;24188;-54
2023/01/07 01:59:58;;;;;;;9.90;3.80;;;21.60;62.20;;;;;;212225;1293;22539;-53
2023/01/07 02:05:04;;;;;;;8.90;4.60;;;21.60;62.20;;;;;;212211;1292;25104;-55
2023/01/07 02:10:15;;;;;;;7.40;4.40;;;21.60;62.10;;;;;;212299;1309;205471;-54
2023/01/07 02:15:31;;;;;;;8.10;4.50;;;21.60;62.00;;;;;;212595;1291;25566;-54
2023/01/07 02:20:41;;;;;;;6.00;3.70;;;21.60;62.10;;;;;;212490;1289;25659;-54
2023/01/07 02:26:07;;;;;;;9.00;4.60;;;21.60;62.00;;;;;;212426;1290;22497;-53
2023/01/07 02:31:36;;;;;;;6.90;4.30;;;21.60;62.50;;;;;;212622;1300;22488;-52
2023/01/07 02:36:47;;;;;;;8.50;4.60;;;21.50;61.90;;;;;;212286;1292;22491;-54
2023/01/07 02:42:21;;;;;;;5.40;3.70;;;21.50;62.30;;;;;;212732;1299;24468;-55
2023/01/07 02:47:33;;;;;;;5.80;3.90;;;21.40;62.00;;;;;;212619;1300;22493;-55
2023/01/07 02:52:37;;;;;;;6.70;4.10;;;21.50;62.00;;;;;;212266;1293;22474;-54
2023/01/07 02:58:14;;;;;;;7.70;4.10;;;21.50;62.10;;;;;;212482;1290;22506;-54
2023/01/07 03:03:43;;;;;;;7.80;4.50;;;21.40;62.20;;;;;;212522;1286;22475;-53
2023/01/07 03:09:31;;;;;;;7.10;4.20;;;21.40;62.30;;;;;;212542;1299;24134;-54
2023/01/07 03:14:57;;;;;;;6.80;3.70;;;21.70;61.50;;;;;;212327;1293;24265;-54
2023/01/07 03:20:04;;;;;;;5.30;4.20;;;22.10;60.20;;;;;;212523;1300;25301;-54
2023/01/07 03:25:10;;;;;;;6.50;3.70;;;22.20;59.90;;;;;;212404;1289;24296;-54
2023/01/07 03:30:17;;;;;;;7.20;3.90;;;22.40;59.50;;;;;;212296;1294;24354;-55
2023/01/07 03:35:23;;;;;;;6.40;3.70;;;22.50;59.20;;;;;;212544;1301;23848;-54
2023/01/07 03:40:28;;;;;;;6.70;3.50;;;22.50;59.20;;;;;;212729;1289;25866;-54
2023/01/07 03:45:33;;;;;;;5.40;3.90;;;22.70;58.80;;;;;;212518;1299;22492;-54
2023/01/07 03:50:39;;;;;;;6.00;4.00;;;22.90;58.80;;;;;;212244;1293;22607;-56
2023/01/07 03:55:43;;;;;;;6.20;4.30;;;22.90;58.60;;;;;;212578;1300;22602;-57
2023/01/07 04:00:47;;;;;;;5.50;3.90;;;23.10;57.70;;;;;;212767;1299;22787;-54
2023/01/07 04:05:52;;;;;;;7.10;4.40;;;23.10;58.20;;;;;;212478;1289;22607;-55
2023/01/07 04:10:58;;;;;;;6.90;4.50;;;23.10;57.60;;;;;;212494;1293;22716;-55
2023/01/07 04:16:03;;;;;;;5.30;4.10;;;23.20;57.40;;;;;;212373;1289;22466;-54
2023/01/07 04:21:07;;;;;;;7.10;4.10;;;23.20;57.50;;;;;;212583;1297;24015;-55
2023/01/07 04:26:11;;;;;;;5.20;3.90;;;23.10;57.60;;;;;;212417;1297;22562;-56
2023/01/07 04:31:16;;;;;;;5.10;3.60;;;23.00;57.70;;;;;;212245;1294;24269;-56
2023/01/07 04:36:20;;;;;;;5.80;3.90;;;23.00;57.90;;;;;;212227;1299;22647;-56
2023/01/07 04:41:25;;;;;;;4.70;3.90;;;23.10;58.00;;;;;;212540;1289;24231;-56
2023/01/07 04:46:29;;;;;;;6.40;4.30;;;22.90;58.50;;;;;;212437;1299;22473;-54
2023/01/07 04:51:33;;;;;;;5.90;4.70;;;23.00;58.40;;;;;;212643;1297;23863;-55
2023/01/07 04:56:38;;;;;;;5.20;3.90;;;23.00;58.20;;;;;;212513;1285;25331;-55
2023/01/07 05:01:43;;;;;;;5.50;4.40;;;22.90;58.60;;;;;;212414;1293;23868;-54
2023/01/07 05:06:48;;;;;;;5.50;3.60;;;22.90;59.00;;;;;;212620;1290;22519;-54
2023/01/07 05:11:52;;;;;;;5.60;3.80;;;22.90;58.40;;;;;;212626;1297;22608;-55
2023/01/07 05:16:56;;;;;;;4.90;4.20;;;22.70;58.50;;;;;;212528;1297;22501;-55
2023/01/07 05:22:01;;;;;;;6.10;3.90;;;22.70;59.10;;;;;;212580;1289;24041;-55
2023/01/07 05:27:09;;;;;;;5.00;4.30;;;22.60;58.60;;;;;;212156;1289;22617;-55
2023/01/07 05:32:14;;;;;;;5.60;4.40;;;22.50;58.70;;;;;;212259;1309;25670;-54
2023/01/07 05:37:18;;;;;;;5.50;4.30;;;22.40;59.10;;;;;;212804;1297;22714;-55
2023/01/07 05:42:23;;;;;;;5.50;4.40;;;22.40;59.00;;;;;;212640;1305;22925;-54
2023/01/07 05:47:27;;;;;;;4.50;3.50;;;22.30;59.70;;;;;;212286;1300;23892;-55
2023/01/07 05:52:31;;;;;;;4.30;3.50;;;22.20;59.20;;;;;;212570;1295;22478;-55
2023/01/07 05:57:35;;;;;;;5.30;4.10;;;22.20;59.10;;;;;;212610;1294;22473;-55
2023/01/07 06:02:39;;;;;;;4.80;4.00;;;22.20;59.60;;;;;;212584;1314;23922;-55
2023/01/07 06:07:43;;;;;;;5.70;3.90;;;22.10;59.20;;;;;;212639;1296;22540;-55
2023/01/07 06:12:47;;;;;;;6.50;4.10;;;22.10;59.60;;;;;;212690;1294;22502;-55
2023/01/07 06:17:52;;;;;;;5.70;4.40;;;22.00;59.30;;;;;;212532;1293;24258;-54
2023/01/07 06:22:56;;;;;;;4.60;3.50;;;22.00;59.40;;;;;;212345;1293;24273;-54
2023/01/07 06:27:59;;;;;;;4.20;3.80;;;21.90;59.40;;;;;;212454;1297;25473;-54
2023/01/07 06:33:04;;;;;;;3.90;3.50;;;21.90;59.50;;;;;;212356;1293;22492;-54
2023/01/07 06:38:08;;;;;;;4.20;3.50;;;21.80;59.50;;;;;;212526;1293;25758;-54
2023/01/07 06:43:12;;;;;;;5.30;3.40;;;21.80;59.60;;;;;;212642;1292;24488;-54
2023/01/07 06:48:16;;;;;;;3.60;3.00;;;21.80;59.60;;;;;;212395;1300;23845;-55
2023/01/07 06:53:20;;;;;;;4.10;3.60;;;21.70;59.60;;;;;;212362;1293;22500;-53
2023/01/07 06:58:24;;;;;;;5.20;3.60;;;21.70;60.00;;;;;;212297;1289;22567;-54
2023/01/07 07:03:28;;;;;;;4.50;3.40;;;21.70;59.70;;;;;;212661;1298;22487;-57
2023/01/07 07:08:32;;;;;;;4.30;3.40;;;21.70;59.90;;;;;;212492;1292;22479;-55
2023/01/07 07:13:36;;;;;;;4.90;3.70;;;21.60;59.80;;;;;;212583;1289;22505;-52
2023/01/07 07:18:40;;;;;;;3.90;3.20;;;21.60;59.80;;;;;;212287;1286;22489;-56
2023/01/07 07:23:44;;;;;;;4.60;3.10;;;21.60;60.00;;;;;;212546;1292;22668;-55
2023/01/07 07:28:48;;;;;;;3.80;3.30;;;21.60;60.00;;;;;;212553;1296;24390;-55
2023/01/07 07:33:52;;;;;;;5.90;3.80;;;21.50;60.10;;;;;;212506;1292;23912;-54
2023/01/07 07:38:56;;;;;;;4.00;3.40;;;21.60;60.10;;;;;;212562;1292;22476;-54
2023/01/07 07:44:00;;;;;;;3.70;3.30;;;22.00;59.40;;;;;;212566;1292;26643;-55
2023/01/07 07:49:04;;;;;;;4.00;3.20;;;22.30;58.60;;;;;;212715;1293;22723;-54
2023/01/07 07:54:08;;;;;;;3.40;3.00;;;22.50;58.40;;;;;;212334;1294;25560;-54
2023/01/07 07:59:12;;;;;;;3.90;3.10;;;22.60;58.00;;;;;;212656;1294;22485;-55
2023/01/07 08:04:16;;;;;;;4.60;3.60;;;22.70;57.80;;;;;;212590;1294;23916;-55
2023/01/07 08:09:21;;;;;;;3.80;3.30;;;22.90;57.50;;;;;;212382;1298;22485;-55
2023/01/07 08:14:25;;;;;;;4.40;2.90;;;23.00;57.70;;;;;;212248;1294;24283;-55
2023/01/07 08:19:29;;;;;;;3.70;3.30;;;23.00;56.90;;;;;;212307;1286;22533;-55
2023/01/07 08:24:33;;;;;;;3.60;3.30;;;23.10;56.50;;;;;;212607;1291;24269;-56
2023/01/07 08:29:37;;;;;;;3.20;2.90;;;23.20;56.30;;;;;;212210;1308;22531;-51
2023/01/07 08:34:41;;;;;;;5.10;3.10;;;23.10;56.90;;;;;;212405;1292;24273;-52
2023/01/07 08:39:45;;;;;;;3.90;3.20;;;23.10;56.80;;;;;;212364;1299;22484;-52
2023/01/07 08:44:49;;;;;;;8.30;3.40;;;23.10;57.20;;;;;;212592;1293;23900;-52
2023/01/07 08:49:54;;;;;;;5.60;3.20;;;23.10;57.10;;;;;;212642;1293;22601;-51
2023/01/07 08:54:58;;;;;;;11.10;3.10;;;23.20;57.40;;;;;;212662;1290;22473;-52
2023/01/07 09:00:02;;;;;;;11.60;3.80;;;23.20;57.10;;;;;;212298;1290;24314;-49
2023/01/07 09:05:07;;;;;;;10.50;3.10;;;23.10;57.30;;;;;;212332;1286;23574;-52
2023/01/07 09:10:11;;;;;;;12.20;3.40;;;23.30;57.30;;;;;;212524;1293;24081;-50
2023/01/07 09:15:16;;;;;;;5.30;3.50;;;23.30;57.30;;;;;;212307;1292;24004;-50
2023/01/07 09:20:20;;;;;;;5.00;3.20;;;23.40;57.40;;;;;;212210;1290;22459;-50
2023/01/07 09:32:25;;;;;;;4.50;3.00;;;23.40;56.90;;;;;;212269;1286;22606;-50
2023/01/07 09:37:29;;;;;;;9.90;4.10;;;23.30;57.70;;;;;;212398;1296;23163;-54
2023/01/07 09:42:39;;;;;;;5.90;3.90;;;23.20;58.40;;;;;;212513;1299;22727;-51
2023/01/07 09:47:48;;;;;;;9.20;3.70;;;23.30;59.50;;;;;;212543;1290;24284;-52
2023/01/07 09:52:56;;;;;;;8.20;4.10;;;23.30;58.80;;;;;;212619;1293;25681;-49
2023/01/07 09:58:00;;;;;;;6.50;3.80;;;23.10;59.10;;;;;;212019;1292;25755;-56
2023/01/07 10:03:25;;;;;;;15.30;3.90;;;23.10;59.40;;;;;;212153;1289;25743;-54
2023/01/07 10:08:43;;;;;;;7.70;4.50;;;23.20;59.00;;;;;;211930;1286;24298;-51
2023/01/07 10:14:08;;;;;;;7.20;4.10;;;23.10;59.20;;;;;;212102;1300;22555;-55
2023/01/07 10:19:27;;;;;;;9.30;4.50;;;23.00;59.00;;;;;;212098;1299;22566;-54
2023/01/07 10:24:36;;;;;;;7.40;3.80;;;23.10;59.10;;;;;;212202;1299;23670;-56
2023/01/07 10:29:53;;;;;;;5.80;3.60;;;23.00;58.50;;;;;;211942;1289;22779;-53
2023/01/07 10:34:59;;;;;;;12.40;4.20;;;23.00;58.40;;;;;;212310;1301;23069;-56
2023/01/07 10:40:28;;;;;;;8.30;4.60;;;23.00;58.20;;;;;;212314;1299;22593;-56
2023/01/07 10:45:57;;;;;;;7.70;4.30;;;23.00;58.20;;;;;;212265;1293;22600;-56
2023/01/07 10:51:35;;;;;;;7.30;4.20;;;22.90;58.20;;;;;;212345;1286;22489;-56
2023/01/07 10:56:47;;;;;;;12.30;4.60;;;22.90;58.30;;;;;;212522;1292;22495;-58
2023/01/07 11:01:52;;;;;;;;;;;22.70;58.60;;;;;;212313;1300;25217;-59
2023/01/07 11:07:04;;;;;;;10.00;3.60;;;22.60;58.10;;;;;;212312;1293;23099;-59
2023/01/07 11:12:38;;;;;;;6.50;3.90;;;22.70;58.80;;;;;;212253;1295;22486;-60
2023/01/07 11:17:58;;;;;;;7.10;4.00;;;22.70;60.00;;;;;;212378;1289;22519;-59
2023/01/07 11:23:18;;;;;;;6.20;3.50;;;22.70;59.90;;;;;;212301;1300;22631;-58
2023/01/07 11:28:26;;;;;;;5.40;4.00;;;22.60;58.80;;;;;;212179;1293;26667;-58
2023/01/07 11:33:45;;;;;;;7.10;3.70;;;22.60;59.80;;;;;;212284;1283;22490;-58
2023/01/07 11:39:17;;;;;;;7.30;4.30;;;22.50;59.80;;;;;;212366;1310;22492;-58
2023/01/07 11:44:22;;;;;;;12.20;4.00;;;22.40;60.00;;;;;;212178;1290;22990;-59
2023/01/07 11:49:29;;;;;;;6.60;4.40;;;22.40;59.90;;;;;;212487;1306;25396;-58
2023/01/07 11:54:33;;;;;;;5.90;3.90;;;22.30;59.60;;;;;;212547;1292;22504;-59
2023/01/07 11:59:37;;;;;;;5.20;3.60;;;22.30;59.30;;;;;;212556;1293;23908;-58
2023/01/07 12:04:41;;;;;;;5.00;3.90;;;22.30;59.20;;;;;;212497;1286;22561;-58
2023/01/07 12:09:45;;;;;;;4.40;3.90;;;22.30;59.10;;;;;;212264;1300;22479;-59
2023/01/07 12:14:49;;;;;;;4.50;3.70;;;22.30;59.10;;;;;;212631;1302;23168;-59
2023/01/07 12:20:32;;;;;;;12.00;4.40;;;22.30;59.20;;;;;;212499;1296;24327;-58
2023/01/07 12:25:56;;;;;;;6.30;3.30;;;22.40;58.80;;;;;;211365;1295;22495;-58
2023/01/07 12:31:30;;;;;;;6.30;4.20;;;22.40;59.00;;;;;;211801;1289;22977;-58
2023/01/07 12:36:53;;;;;;;5.80;3.50;;;22.50;58.50;;;;;;211802;1292;22508;-58
2023/01/07 12:42:20;;;;;;;4.70;3.70;;;22.30;58.90;;;;;;211585;1306;25417;-59
2023/01/07 12:47:41;;;;;;;6.10;4.20;;;22.20;58.50;;;;;;212075;1299;23925;-59
2023/01/07 12:52:56;;;;;;;3.80;3.30;;;22.20;58.50;;;;;;211538;1301;22448;-60
2023/01/07 12:58:24;;;;;;;5.40;3.50;;;22.20;58.80;;;;;;211912;1300;26746;-57
2023/01/07 13:03:43;;;;;;;5.60;4.00;;;22.20;58.10;;;;;;212074;1293;24458;-58
2023/01/07 13:09:32;;;;;;;8.20;3.60;;;22.30;58.00;;;;;;212680;1293;24371;-57
2023/01/07 13:14:44;;;;;;;10.90;3.70;;;22.40;58.40;;;;;;211803;1300;25546;-60
2023/01/07 13:19:49;;;;;;;11.20;4.30;;;22.60;58.50;;;;;;212334;1286;23868;-56
2023/01/07 13:25:19;;;;;;;6.00;3.40;;;22.60;58.30;;;;;;212246;1286;25513;-59
2023/01/07 13:30:46;;;;;;;6.90;3.90;;;22.50;58.00;;;;;;212487;1292;23879;-58
2023/01/07 13:36:13;;;;;;;6.80;4.10;;;22.40;58.00;;;;;;212201;1306;22563;-64
2023/01/07 13:41:32;;;;;;;7.90;4.10;;;22.30;58.10;;;;;;212152;1293;23736;-60
2023/01/07 13:46:41;;;;;;;7.80;3.50;;;22.50;57.40;;;;;;212395;1286;24288;-60
2023/01/07 13:51:45;;;;;;;6.20;3.30;;;22.40;57.50;;;;;;212336;1285;22459;-59
2023/01/07 13:56:51;;;;;;;5.40;4.10;;;22.30;57.80;;;;;;212427;1292;24311;-63
2023/01/07 14:02:28;;;;;;;6.60;3.80;;;22.10;58.10;;;;;;212403;1293;22490;-57
2023/01/07 14:08:00;;;;;;;6.50;4.10;;;22.20;57.90;;;;;;211008;1298;251087;-57
2023/01/07 14:13:19;;;;;;;6.60;3.30;;;22.30;57.60;;;;;;211050;1300;25279;-57
2023/01/07 14:18:26;;;;;;;5.50;3.20;;;22.20;57.70;;;;;;210987;1299;22488;-57
2023/01/07 14:23:37;;;;;;;7.20;3.80;;;22.30;57.60;;;;;;211146;1305;22523;-57
2023/01/07 14:29:15;;;;;;;6.80;3.80;;;22.30;57.50;;;;;;211018;1305;22520;-56
2023/01/07 14:34:25;;;;;;;5.70;3.70;;;22.30;57.60;;;;;;211046;1292;24265;-57
2023/01/07 14:39:30;;;;;;;8.70;3.80;;;22.10;57.40;;;;;;211162;1299;23317;-58
2023/01/07 14:44:34;;;;;;;10.80;3.60;;;22.10;58.30;;;;;;212095;1293;22591;-57
2023/01/07 14:49:47;;;;;;;13.10;3.40;;;22.10;57.90;;;;;;212922;1293;22904;-60
2023/01/07 14:55:09;;;;;;;7.10;3.50;;;22.20;58.10;;;;;;212204;1293;23110;-61
2023/01/07 15:00:34;;;;;;;9.50;4.40;;;22.10;58.30;;;;;;212310;1293;22644;-60
2023/01/07 15:05:57;;;;;;;7.20;4.00;;;22.20;58.00;;;;;;212217;1293;23004;-58
2023/01/07 15:16:32;;;;;;;9.80;4.90;;;22.00;58.00;;;;;;212183;1299;22493;-58
2023/01/07 15:21:55;;;;;;;13.50;5.20;;;22.00;58.10;;;;;;212340;1306;23746;-58
2023/01/07 15:27:25;;;;;;;10.00;6.10;;;22.00;57.70;;;;;;211990;1286;22476;-58
2023/01/07 15:33:13;;;;;;;10.00;5.70;;;22.10;57.30;;;;;;212034;1293;23880;-59
2023/01/07 15:38:44;;;;;;;12.50;7.10;;;22.10;57.00;;;;;;210419;1294;24329;-58
2023/01/07 15:43:50;;;;;;;11.70;7.10;;;21.90;57.10;;;;;;210406;1294;22529;-57
2023/01/07 15:49:16;;;;;;;10.70;7.30;;;21.70;57.70;;;;;;210591;1302;24505;-57
2023/01/07 15:54:33;;;;;;;15.80;8.30;;;21.70;57.70;;;;;;210679;1294;22741;-58
2023/01/07 15:59:51;;;;;;;12.50;7.00;;;21.70;57.90;;;;;;210522;1308;23187;-56
2023/01/07 16:04:59;;;;;;;14.00;7.90;;;21.70;58.30;;;;;;210717;1301;24286;-58
2023/01/07 16:10:04;;;;;;;10.70;7.80;;;21.80;58.00;;;;;;210401;1293;22995;-58
2023/01/07 16:15:33;;;;;;;11.10;8.30;;;21.80;58.30;;;;;;211766;1300;25700;-58
2023/01/07 16:20:58;;;;;;;15.30;8.60;;;21.70;58.00;;;;;;212257;1286;25285;-58
2023/01/07 16:26:14;;;;;;;16.70;8.90;;;21.60;57.90;;;;;;211913;1286;25107;-57
2023/01/07 16:31:23;;;;;;;13.60;9.00;;;21.80;57.60;;;;;;212201;1293;22562;-57
2023/01/07 16:36:31;;;;;;;17.40;9.10;;;21.90;57.20;;;;;;212869;1292;22494;-57
2023/01/07 16:41:36;;;;;;;16.40;9.70;;;21.80;57.30;;;;;;212369;1306;27623;-57
2023/01/07 16:46:41;;;;;;;13.60;10.10;;;21.70;57.30;;;;;;212509;1300;27396;-58
2023/01/07 16:52:01;;;;;;;20.60;10.90;;;21.70;57.20;;;;;;212263;1290;22505;-58
2023/01/07 16:57:15;;;;;;;16.20;11.60;;;21.50;57.70;;;;;;212237;1302;25553;-62
2023/01/07 17:02:47;;;;;;;15.80;10.70;;;21.60;58.30;;;;;;212325;1293;24271;-64
2023/01/07 17:07:59;;;;;;;20.00;11.70;;;21.60;58.70;;;;;;212589;1289;24255;-61
2023/01/07 17:13:31;;;;;;;15.50;11.60;;;21.70;58.60;;;;;;212060;1293;22489;-61
2023/01/07 17:18:35;;;;;;;35.80;14.90;;;22.10;57.60;;;;;;212288;1300;22496;-58
2023/01/07 17:23:41;;;;;;;46.00;18.60;;;22.50;57.00;;;;;;212526;1289;22851;-63
2023/01/07 17:28:59;;;;;;;38.80;17.00;;;22.70;55.80;;;;;;212272;1293;25337;-62
2023/01/07 17:34:03;;;;;;;37.00;17.20;;;22.90;56.60;;;;;;212325;1293;24774;-62
2023/01/07 17:39:07;;;;;;;31.40;16.20;;;22.80;57.40;;;;;;212508;1292;23903;-64
2023/01/07 17:44:13;;;;;;;29.00;15.00;;;23.00;56.60;;;;;;212420;1292;22481;-64
2023/01/07 17:49:19;;;;;;;29.10;15.60;;;23.30;56.60;;;;;;212246;1294;22481;-63
2023/01/07 17:54:24;;;;;;;35.40;16.50;;;23.40;55.90;;;;;;212256;1293;22716;-58
2023/01/07 17:59:29;;;;;;;32.90;15.80;;;23.30;55.80;;;;;;212244;1289;23909;-58
2023/01/07 18:04:33;;;;;;;30.60;16.10;;;23.00;56.80;;;;;;212228;1286;26287;-66
2023/01/07 18:09:37;;;;;;;27.80;15.50;;;23.10;56.60;;;;;;212100;1294;24992;-62
2023/01/07 18:14:44;;;;;;;27.70;14.30;;;23.00;56.20;;;;;;212097;1286;23493;-62
2023/01/07 18:19:49;;;;;;;26.60;14.70;;;23.00;56.80;;;;;;212184;1286;22843;-64
2023/01/07 18:24:53;;;;;;;23.80;13.10;;;22.60;57.60;;;;;;212917;1293;22517;-58
2023/01/07 18:29:57;;;;;;;24.40;14.50;;;22.50;57.40;;;;;;212217;1292;22488;-63
2023/01/07 18:35:01;;;;;;;21.10;12.90;;;22.40;57.70;;;;;;211805;1289;22519;-62
2023/01/07 18:40:08;;;;;;;22.60;13.30;;;22.30;57.40;;;;;;212220;1293;22520;-63
2023/01/07 18:45:12;;;;;;;19.40;12.80;;;22.30;57.50;;;;;;213340;1300;25976;-58
2023/01/07 18:50:17;;;;;;;20.70;13.30;;;22.20;57.60;;;;;;212343;1292;22769;-60
2023/01/07 18:55:21;;;;;;;19.90;13.10;;;22.20;57.90;;;;;;211867;1289;22631;-67
2023/01/07 19:00:25;;;;;;;26.20;12.60;;;22.20;57.70;;;;;;212769;1289;24281;-57
2023/01/07 19:05:29;;;;;;;22.20;12.40;;;22.20;57.70;;;;;;212098;1296;24841;-58
2023/01/07 19:10:33;;;;;;;30.60;13.00;;;22.20;57.70;;;;;;212664;1292;25295;-56
2023/01/07 19:15:46;;;;;;;18.30;11.80;;;22.40;57.30;;;;;;211964;1299;22566;-56
2023/01/07 19:20:51;;;;;;;22.40;12.30;;;22.00;58.20;;;;;;212245;1293;22475;-55
2023/01/07 19:26:07;;;;;;;25.10;12.60;;;21.80;58.50;;;;;;212231;1293;24281;-64
2023/01/07 19:31:15;;;;;;;32.90;12.50;;;21.90;57.90;;;;;;212212;1293;22637;-65
2023/01/07 19:36:19;;;;;;;26.60;12.10;;;22.00;58.40;;;;;;212658;1292;22490;-60
2023/01/07 19:41:25;;;;;;;24.90;12.40;;;22.10;57.00;;;;;;211995;1294;22484;-62
2023/01/07 19:46:33;;;;;;;19.00;11.60;;;21.80;57.60;;;;;;211899;1297;22605;-64
2023/01/07 19:51:41;;;;;;;18.10;12.40;;;22.10;57.40;;;;;;212111;1294;23412;-64
2023/01/07 19:56:45;;;;;;;18.00;12.30;;;22.10;56.50;;;;;;212428;1293;24327;-62
2023/01/07 20:02:00;;;;;;;16.70;12.10;;;22.00;56.70;;;;;;212113;1291;22489;-62
2023/01/07 20:07:19;;;;;;;22.50;12.90;;;22.10;56.60;;;;;;212340;1289;25259;-64
2023/01/07 20:12:23;;;;;;;19.60;12.60;;;21.90;56.90;;;;;;212435;1294;25556;-64
2023/01/07 20:17:28;;;;;;;18.80;13.30;;;21.90;57.00;;;;;;212110;1294;24272;-64
2023/01/07 20:22:33;;;;;;;16.50;12.10;;;21.90;56.80;;;;;;212087;1294;22602;-65
2023/01/07 20:27:37;;;;;;;19.50;12.90;;;22.20;56.00;;;;;;212167;1298;26183;-65
2023/01/07 20:32:41;;;;;;;27.00;13.30;;;22.00;56.80;;;;;;212290;1292;22511;-61
2023/01/07 20:37:45;;;;;;;17.70;13.10;;;21.90;57.50;;;;;;212329;1300;22523;-62
2023/01/07 20:43:39;;;;;;;24.70;13.10;;;21.90;56.70;;;;;;212206;1286;22778;-59
2023/01/07 20:48:43;;;;;;;28.10;13.20;;;21.90;56.30;;;;;;212298;1294;22485;-59
2023/01/07 20:53:49;;;;;;;19.50;13.10;;;21.90;56.80;;;;;;212304;1294;22490;-63
2023/01/07 20:58:56;;;;;;;17.80;13.40;;;21.90;56.40;;;;;;212056;1300;26146;-62
2023/01/07 21:04:02;;;;;;;17.70;13.50;;;21.80;56.30;;;;;;212305;1289;23322;-61
2023/01/07 21:09:07;;;;;;;25.00;13.50;;;21.70;56.60;;;;;;212158;1286;24329;-61
2023/01/07 21:14:12;;;;;;;20.70;13.40;;;21.60;56.40;;;;;;212137;1300;26544;-53
2023/01/07 21:19:16;;;;;;;20.80;13.00;;;21.60;57.30;;;;;;212432;1292;24456;-53
2023/01/07 21:24:20;;;;;;;22.60;13.40;;;21.70;57.10;;;;;;212293;1289;22564;-55
2023/01/07 21:29:26;;;;;;;26.30;12.20;;;22.10;55.90;;;;;;212150;1294;22663;-52
2023/01/07 21:34:30;;;;;;;18.10;11.70;;;22.40;55.10;;;;;;212317;1286;22607;-54
2023/01/07 21:39:34;;;;;;;21.80;12.70;;;22.50;54.60;;;;;;212334;1293;23897;-54
2023/01/07 21:44:38;;;;;;;17.80;11.80;;;22.60;54.60;;;;;;212428;1300;24432;-54
2023/01/07 21:49:43;;;;;;;30.80;12.00;;;22.80;54.20;;;;;;212471;1290;23383;-53
2023/01/07 21:54:47;;;;;;;21.90;12.60;;;23.00;54.40;;;;;;212192;1297;25275;-54
2023/01/07 21:59:51;;;;;;;15.10;11.10;;;23.00;54.10;;;;;;212253;1297;25407;-53
2023/01/07 22:04:55;;;;;;;15.80;11.20;;;23.10;54.00;;;;;;212182;1289;25282;-56
2023/01/07 22:09:59;;;;;;;20.10;10.90;;;23.30;54.10;;;;;;212359;1293;23922;-54
2023/01/07 22:15:04;;;;;;;16.90;10.70;;;23.40;53.80;;;;;;212369;1297;24253;-55
2023/01/07 22:20:10;;;;;;;13.40;11.10;;;23.40;53.80;;;;;;212408;1298;24294;-55
2023/01/07 22:25:14;;;;;;;16.50;11.00;;;23.40;54.20;;;;;;212359;1286;24290;-55
2023/01/07 22:30:20;;;;;;;20.20;11.90;;;23.30;54.60;;;;;;212102;1289;22612;-55
2023/01/07 22:35:25;;;;;;;17.00;11.50;;;23.30;56.30;;;;;;212282;1294;23015;-55
2023/01/07 22:40:33;;;;;;;18.90;11.80;;;23.60;57.00;;;;;;212224;1289;22523;-55
2023/01/07 22:45:49;;;;;;;17.10;12.80;;;23.50;57.80;;;;;;212276;1292;24059;-55
2023/01/07 22:50:59;;;;;;;14.40;12.60;;;23.40;56.30;;;;;;211964;1299;24690;-54
2023/01/07 22:56:05;;;;;;;16.80;11.50;;;23.30;56.80;;;;;;212108;1285;22641;-54
2023/01/07 23:01:13;;;;;;;15.90;11.70;;;23.10;57.40;;;;;;212264;1294;24392;-54
2023/01/07 23:06:17;;;;;;;15.40;11.70;;;23.00;57.60;;;;;;211997;1292;25581;-52
2023/01/07 23:16:44;;;;;;;16.30;11.00;;;22.90;58.00;;;;;;212339;1306;23894;-55
2023/01/07 23:21:51;;;;;;;15.50;11.80;;;22.70;58.10;;;;;;212246;1294;22467;-55
2023/01/07 23:26:56;;;;;;;15.30;11.00;;;22.60;58.10;;;;;;212220;1289;22503;-54
2023/01/07 23:32:00;;;;;;;15.10;10.80;;;22.40;59.20;;;;;;212055;1312;22665;-55
2023/01/07 23:37:04;;;;;;;14.00;10.80;;;22.40;59.00;;;;;;212468;1299;22890;-54
2023/01/07 23:42:09;;;;;;;15.40;10.80;;;22.40;59.00;;;;;;212894;1291;22498;-53
2023/01/07 23:47:15;;;;;;;11.80;9.90;;;22.20;59.10;;;;;;212362;1299;22851;-53
2023/01/07 23:52:19;;;;;;;12.20;10.30;;;22.20;59.30;;;;;;212010;1294;22559;-54
2023/01/07 23:57:23;;;;;;;16.00;11.20;;;22.00;59.40;;;;;;212088;1299;22487;-55
